createdAt,value
2023-04-16T00:00:35.239Z,54.57
2023-04-16T00:01:35.249Z,54.76
2023-04-16T00:02:35.353Z,54.96
2023-04-16T00:03:35.559Z,55.19
2023-04-16T00:04:35.358Z,55.27
2023-04-16T00:05:35.271Z,54.91
2023-04-16T00:06:35.720Z,54.99
2023-04-16T00:07:35.342Z,55.03
2023-04-16T00:08:35.281Z,54.70
2023-04-16T00:09:35.322Z,54.81
2023-04-16T00:10:35.342Z,54.52
2023-04-16T00:11:35.339Z,55.08
2023-04-16T00:12:35.331Z,54.84
2023-04-16T00:13:35.360Z,54.89
2023-04-16T00:14:35.310Z,55.04
2023-04-16T00:15:35.316Z,54.97
2023-04-16T00:16:35.415Z,55.36
2023-04-16T00:17:35.386Z,55.54
2023-04-16T00:18:35.341Z,55.60
2023-04-16T00:19:35.310Z,55.34
2023-04-16T00:20:35.356Z,54.90
2023-04-16T00:21:35.359Z,55.14
2023-04-16T00:22:35.381Z,55.12
2023-04-16T00:23:35.481Z,55.15
2023-04-16T00:24:35.400Z,55.31
2023-04-16T00:25:35.455Z,54.82
2023-04-16T00:26:35.454Z,54.73
2023-04-16T00:27:35.478Z,54.97
2023-04-16T00:28:35.517Z,54.95
2023-04-16T00:29:35.535Z,54.52
2023-04-16T00:30:35.608Z,54.51
2023-04-16T00:31:35.607Z,54.41
2023-04-16T00:32:35.674Z,54.30
2023-04-16T00:33:35.647Z,54.47
2023-04-16T00:34:35.675Z,54.64
2023-04-16T00:35:35.706Z,54.57
2023-04-16T00:36:35.725Z,54.53
2023-04-16T00:37:35.739Z,54.17
2023-04-16T00:38:35.842Z,53.97
2023-04-16T00:39:35.822Z,54.14
2023-04-16T00:40:35.877Z,54.18
2023-04-16T00:41:35.918Z,54.56
2023-04-16T00:42:35.923Z,55.05
2023-04-16T00:43:35.940Z,54.78
2023-04-16T00:44:36.020Z,54.39
2023-04-16T00:45:35.975Z,54.56
2023-04-16T00:46:36.079Z,54.67
2023-04-16T00:47:36.198Z,54.44
2023-04-16T00:48:36.169Z,54.56
2023-04-16T00:49:36.167Z,54.93
2023-04-16T00:50:36.236Z,55.05
2023-04-16T00:51:36.285Z,55.50
2023-04-16T00:52:36.356Z,55.29
2023-04-16T00:53:36.360Z,55.17
2023-04-16T00:54:36.455Z,54.99
2023-04-16T00:55:36.451Z,54.50
2023-04-16T00:56:36.478Z,54.22
2023-04-16T00:57:36.541Z,54.37
2023-04-16T00:58:36.617Z,53.89
2023-04-16T00:59:36.601Z,53.82
2023-04-16T01:00:36.646Z,53.97
2023-04-16T01:01:36.668Z,54.21
2023-04-16T01:02:36.846Z,53.98
2023-04-16T01:03:36.877Z,54.14
2023-04-16T01:04:36.828Z,54.79
2023-04-16T01:05:36.768Z,55.26
2023-04-16T01:06:36.784Z,55.05
2023-04-16T01:07:36.816Z,54.61
2023-04-16T01:08:36.783Z,54.33
2023-04-16T01:09:36.859Z,54.56
2023-04-16T01:10:36.886Z,54.37
2023-04-16T01:11:36.882Z,54.24
2023-04-16T01:12:36.919Z,54.19
2023-04-16T01:13:36.957Z,54.69
2023-04-16T01:14:36.948Z,54.77
2023-04-16T01:15:36.955Z,54.73
2023-04-16T01:16:37.000Z,54.94
2023-04-16T01:17:37.010Z,54.91
2023-04-16T01:18:37.025Z,55.38
2023-04-16T01:19:37.023Z,55.62
2023-04-16T01:20:37.010Z,55.34
2023-04-16T01:21:37.111Z,55.43
2023-04-16T01:22:37.049Z,55.30
2023-04-16T01:23:37.077Z,55.07
2023-04-16T01:24:37.057Z,54.92
2023-04-16T01:25:37.020Z,55.19
2023-04-16T01:26:37.068Z,55.11
2023-04-16T01:27:37.071Z,55.08
2023-04-16T01:28:37.091Z,55.62
2023-04-16T01:29:37.102Z,55.88
2023-04-16T01:30:37.233Z,56.35
2023-04-16T01:31:37.221Z,56.23
2023-04-16T01:32:37.161Z,56.04
2023-04-16T01:33:37.147Z,56.35
2023-04-16T01:34:37.179Z,56.12
2023-04-16T01:35:37.515Z,55.90
2023-04-16T01:36:37.157Z,55.84
2023-04-16T01:37:37.185Z,56.13
2023-04-16T01:38:37.196Z,56.26
2023-04-16T01:39:37.165Z,56.18
2023-04-16T01:40:37.178Z,56.16
2023-04-16T01:41:37.201Z,56.03
2023-04-16T01:42:37.223Z,56.13
2023-04-16T01:43:40.098Z,56.47
2023-04-16T01:44:37.574Z,55.90
2023-04-16T01:45:37.194Z,55.40
2023-04-16T01:46:37.193Z,54.96
2023-04-16T01:47:37.224Z,55.14
2023-04-16T01:48:37.158Z,55.16
2023-04-16T01:49:37.196Z,55.44
2023-04-16T01:50:37.144Z,56.04
2023-04-16T01:51:37.177Z,55.69
2023-04-16T01:52:37.210Z,55.23
2023-04-16T01:53:37.296Z,54.75
2023-04-16T01:54:37.171Z,54.82
2023-04-16T01:55:37.122Z,55.20
2023-04-16T01:56:37.079Z,54.60
2023-04-16T01:57:37.097Z,54.61
2023-04-16T01:58:37.093Z,55.01
2023-04-16T01:59:37.123Z,54.62
2023-04-16T02:00:37.115Z,55.15
2023-04-16T02:01:37.085Z,55.22
2023-04-16T02:02:37.242Z,54.82
2023-04-16T02:03:37.171Z,54.69
2023-04-16T02:04:37.094Z,55.30
2023-04-16T02:05:37.053Z,55.34
2023-04-16T02:06:37.079Z,54.95
2023-04-16T02:07:37.080Z,55.30
2023-04-16T02:08:37.029Z,55.45
2023-04-16T02:09:37.030Z,54.98
2023-04-16T02:10:37.041Z,54.33
2023-04-16T02:11:37.014Z,54.53
2023-04-16T02:12:37.019Z,54.82
2023-04-16T02:13:37.032Z,55.24
2023-04-16T02:14:37.305Z,55.61
2023-04-16T02:15:36.985Z,55.92
2023-04-16T02:16:37.020Z,54.90
2023-04-16T02:17:37.018Z,54.46
2023-04-16T02:18:36.912Z,54.39
2023-04-16T02:19:36.947Z,54.63
2023-04-16T02:20:36.959Z,54.52
2023-04-16T02:21:36.962Z,54.26
2023-04-16T02:22:36.941Z,53.95
2023-04-16T02:23:36.925Z,54.37
2023-04-16T02:24:36.936Z,54.61
2023-04-16T02:25:36.923Z,54.42
2023-04-16T02:26:36.882Z,54.69
2023-04-16T02:27:36.918Z,54.91
2023-04-16T02:28:36.898Z,55.04
2023-04-16T02:29:36.961Z,55.36
2023-04-16T02:30:36.969Z,55.30
2023-04-16T02:31:37.157Z,55.26
2023-04-16T02:32:37.104Z,55.18
2023-04-16T02:33:37.056Z,54.90
2023-04-16T02:34:37.114Z,55.06
2023-04-16T02:35:37.112Z,54.96
2023-04-16T02:36:37.173Z,55.02
2023-04-16T02:37:37.211Z,54.67
2023-04-16T02:38:37.241Z,54.97
2023-04-16T02:39:37.288Z,55.11
2023-04-16T02:40:37.310Z,55.33
2023-04-16T02:41:37.320Z,55.86
2023-04-16T02:42:37.314Z,56.00
2023-04-16T02:43:37.350Z,56.18
2023-04-16T02:44:37.359Z,56.03
2023-04-16T02:45:37.468Z,56.34
2023-04-16T02:46:37.394Z,55.88
2023-04-16T02:47:37.491Z,56.07
2023-04-16T02:48:37.424Z,55.29
2023-04-16T02:49:37.449Z,54.07
2023-04-16T02:50:37.498Z,53.52
2023-04-16T02:51:37.532Z,54.36
2023-04-16T02:52:37.553Z,55.00
2023-04-16T02:53:37.529Z,54.94
2023-04-16T02:54:37.606Z,55.23
2023-04-16T02:55:37.514Z,55.45
2023-04-16T02:56:37.560Z,55.65
2023-04-16T02:57:38.879Z,55.48
2023-04-16T02:58:37.584Z,55.81
2023-04-16T02:59:37.573Z,55.43
2023-04-16T03:00:37.615Z,55.42
2023-04-16T03:01:37.696Z,55.72
2023-04-16T03:02:37.680Z,55.60
2023-04-16T03:03:37.617Z,55.42
2023-04-16T03:04:37.696Z,55.39
2023-04-16T03:05:39.744Z,55.32
2023-04-16T03:06:37.651Z,55.29
2023-04-16T03:07:37.670Z,55.40
2023-04-16T03:08:37.636Z,55.83
2023-04-16T03:09:37.702Z,55.87
2023-04-16T03:10:37.615Z,55.68
2023-04-16T03:11:37.613Z,55.50
2023-04-16T03:12:37.613Z,55.23
2023-04-16T03:13:37.603Z,55.25
2023-04-16T03:14:37.654Z,55.49
2023-04-16T03:15:37.610Z,55.44
2023-04-16T03:16:37.633Z,55.93
2023-04-16T03:17:37.652Z,56.07
2023-04-16T03:18:37.550Z,55.96
2023-04-16T03:19:37.578Z,55.88
2023-04-16T03:20:37.548Z,55.81
2023-04-16T03:21:37.594Z,55.81
2023-04-16T03:22:37.551Z,55.68
2023-04-16T03:23:37.566Z,55.57
2023-04-16T03:24:37.560Z,55.41
2023-04-16T03:25:37.552Z,55.45
2023-04-16T03:26:37.539Z,55.47
2023-04-16T03:27:37.638Z,55.16
2023-04-16T03:28:37.488Z,55.41
2023-04-16T03:29:37.554Z,55.47
2023-04-16T03:30:37.504Z,55.51
2023-04-16T03:31:37.633Z,55.67
2023-04-16T03:32:37.540Z,55.65
2023-04-16T03:33:37.449Z,55.45
2023-04-16T03:34:37.515Z,55.51
2023-04-16T03:35:37.507Z,55.23
2023-04-16T03:36:37.475Z,54.76
2023-04-16T03:37:37.449Z,55.17
2023-04-16T03:38:37.444Z,55.58
2023-04-16T03:39:37.455Z,55.80
2023-04-16T03:40:37.400Z,56.01
2023-04-16T03:41:37.422Z,55.99
2023-04-16T03:42:37.428Z,55.98
2023-04-16T03:43:37.427Z,56.11
2023-04-16T03:44:37.375Z,56.52
2023-04-16T03:45:37.384Z,56.35
2023-04-16T03:46:37.524Z,56.51
2023-04-16T03:47:37.397Z,56.65
2023-04-16T03:48:37.365Z,56.50
2023-04-16T03:49:37.368Z,56.47
2023-04-16T03:50:37.390Z,56.25
2023-04-16T03:51:37.316Z,56.18
2023-04-16T03:52:37.333Z,56.45
2023-04-16T03:53:37.365Z,56.79
2023-04-16T03:54:37.350Z,56.83
2023-04-16T03:55:37.328Z,56.70
2023-04-16T03:56:37.304Z,56.65
2023-04-16T03:57:37.328Z,56.89
2023-04-16T03:58:37.296Z,56.73
2023-04-16T03:59:37.316Z,56.65
2023-04-16T04:00:37.277Z,56.47
2023-04-16T04:01:37.344Z,56.44
2023-04-16T04:02:37.365Z,56.59
2023-04-16T04:03:37.497Z,56.54
2023-04-16T04:04:37.463Z,56.21
2023-04-16T04:05:37.252Z,55.94
2023-04-16T04:06:37.255Z,56.16
2023-04-16T04:07:37.260Z,56.05
2023-04-16T04:08:37.250Z,56.24
2023-04-16T04:09:37.291Z,56.11
2023-04-16T04:10:37.219Z,56.00
2023-04-16T04:11:37.253Z,56.10
2023-04-16T04:12:37.194Z,56.41
2023-04-16T04:13:37.240Z,56.51
2023-04-16T04:14:37.226Z,56.45
2023-04-16T04:15:37.161Z,55.86
2023-04-16T04:16:37.230Z,55.60
2023-04-16T04:17:37.229Z,55.96
2023-04-16T04:18:37.192Z,56.13
2023-04-16T04:19:40.260Z,56.51
2023-04-16T04:20:38.133Z,56.23
2023-04-16T04:21:37.180Z,56.10
2023-04-16T04:22:37.163Z,56.14
2023-04-16T04:23:37.167Z,55.99
2023-04-16T04:24:37.183Z,55.72
2023-04-16T04:25:37.087Z,55.60
2023-04-16T04:26:37.118Z,55.73
2023-04-16T04:27:37.116Z,55.99
2023-04-16T04:28:37.096Z,55.91
2023-04-16T04:29:37.107Z,55.92
2023-04-16T04:30:37.070Z,56.05
2023-04-16T04:31:37.068Z,55.93
2023-04-16T04:32:37.158Z,55.95
2023-04-16T04:33:37.060Z,55.95
2023-04-16T04:34:37.095Z,56.59
2023-04-16T04:35:37.058Z,56.40
2023-04-16T04:36:37.043Z,56.41
2023-04-16T04:37:37.034Z,56.76
2023-04-16T04:38:37.039Z,56.67
2023-04-16T04:39:37.058Z,56.31
2023-04-16T04:40:37.052Z,56.46
2023-04-16T04:41:37.094Z,56.62
2023-04-16T04:42:37.145Z,56.54
2023-04-16T04:43:37.133Z,56.76
2023-04-16T04:44:37.220Z,56.58
2023-04-16T04:45:37.213Z,56.65
2023-04-16T04:46:37.190Z,56.44
2023-04-16T04:47:37.230Z,56.28
2023-04-16T04:48:37.194Z,55.97
2023-04-16T04:49:37.219Z,56.19
2023-04-16T04:50:37.244Z,56.37
2023-04-16T04:51:37.276Z,56.32
2023-04-16T04:52:37.288Z,56.37
2023-04-16T04:53:37.232Z,56.36
2023-04-16T04:54:37.235Z,56.39
2023-04-16T04:55:37.252Z,56.38
2023-04-16T04:56:37.251Z,56.01
2023-04-16T04:57:37.277Z,56.53
2023-04-16T04:58:37.246Z,56.64
2023-04-16T04:59:37.285Z,56.49
2023-04-16T05:00:37.269Z,56.48
2023-04-16T05:01:37.309Z,56.48
2023-04-16T05:02:37.289Z,56.57
2023-04-16T05:03:37.495Z,56.50
2023-04-16T05:04:37.342Z,55.96
2023-04-16T05:05:37.298Z,55.68
2023-04-16T05:06:37.336Z,55.56
2023-04-16T05:07:37.333Z,55.36
2023-04-16T05:08:37.344Z,55.94
2023-04-16T05:09:37.383Z,55.97
2023-04-16T05:10:37.365Z,56.19
2023-04-16T05:11:37.367Z,56.00
2023-04-16T05:12:37.373Z,56.05
2023-04-16T05:13:37.370Z,55.94
2023-04-16T05:14:37.420Z,56.19
2023-04-16T05:15:37.392Z,56.05
2023-04-16T05:16:37.467Z,55.89
2023-04-16T05:17:37.479Z,55.94
2023-04-16T05:18:37.406Z,56.10
2023-04-16T05:19:37.426Z,55.63
2023-04-16T05:20:37.467Z,55.42
2023-04-16T05:21:37.545Z,55.58
2023-04-16T05:22:37.500Z,55.37
2023-04-16T05:23:37.495Z,55.36
2023-04-16T05:24:37.551Z,55.72
2023-04-16T05:25:37.564Z,55.85
2023-04-16T05:26:37.539Z,55.78
2023-04-16T05:27:37.559Z,55.44
2023-04-16T05:28:37.588Z,55.04
2023-04-16T05:29:37.713Z,55.08
2023-04-16T05:30:37.659Z,55.21
2023-04-16T05:31:37.655Z,55.34
2023-04-16T05:32:37.728Z,55.10
2023-04-16T05:33:37.731Z,55.25
2023-04-16T05:34:37.745Z,55.40
2023-04-16T05:35:37.786Z,55.68
2023-04-16T05:36:37.745Z,55.64
2023-04-16T05:37:37.748Z,55.76
2023-04-16T05:38:37.774Z,55.66
2023-04-16T05:39:38.604Z,55.80
2023-04-16T05:40:37.844Z,55.73
2023-04-16T05:41:37.794Z,55.68
2023-04-16T05:42:37.855Z,55.44
2023-04-16T05:43:37.884Z,55.38
2023-04-16T05:44:37.918Z,54.88
2023-04-16T05:45:37.874Z,55.29
2023-04-16T05:46:38.108Z,55.86
2023-04-16T05:47:38.011Z,55.99
2023-04-16T05:48:38.014Z,55.69
2023-04-16T05:49:37.974Z,55.15
2023-04-16T05:50:38.006Z,54.52
2023-04-16T05:51:38.006Z,55.07
2023-04-16T05:52:38.034Z,55.63
2023-04-16T05:53:38.036Z,55.46
2023-04-16T05:54:38.067Z,55.69
2023-04-16T05:55:38.055Z,55.66
2023-04-16T05:56:38.106Z,55.43
2023-04-16T05:57:38.109Z,55.12
2023-04-16T05:58:38.094Z,55.51
2023-04-16T05:59:38.152Z,55.57
2023-04-16T06:00:38.159Z,55.41
2023-04-16T06:01:38.185Z,55.69
2023-04-16T06:02:38.215Z,55.56
2023-04-16T06:03:38.188Z,55.17
2023-04-16T06:04:38.169Z,55.02
2023-04-16T06:05:38.206Z,54.59
2023-04-16T06:06:38.214Z,54.64
2023-04-16T06:07:38.194Z,54.88
2023-04-16T06:08:38.206Z,54.98
2023-04-16T06:09:38.205Z,55.73
2023-04-16T06:10:38.232Z,54.66
2023-04-16T06:11:38.229Z,54.79
2023-04-16T06:12:38.229Z,54.74
2023-04-16T06:13:38.205Z,54.80
2023-04-16T06:14:38.230Z,55.22
2023-04-16T06:15:38.257Z,55.23
2023-04-16T06:16:38.240Z,54.77
2023-04-16T06:17:38.237Z,54.80
2023-04-16T06:18:38.313Z,54.73
2023-04-16T06:19:38.284Z,54.81
2023-04-16T06:20:38.404Z,54.85
2023-04-16T06:21:38.401Z,54.75
2023-04-16T06:22:38.392Z,54.61
2023-04-16T06:23:38.407Z,54.98
2023-04-16T06:24:38.413Z,55.11
2023-04-16T06:25:38.398Z,55.12
2023-04-16T06:26:38.389Z,55.25
2023-04-16T06:27:38.455Z,55.83
2023-04-16T06:28:38.469Z,55.71
2023-04-16T06:29:41.515Z,55.68
2023-04-16T06:30:38.479Z,55.49
2023-04-16T06:31:38.498Z,55.31
2023-04-16T06:32:38.513Z,55.59
2023-04-16T06:33:38.504Z,55.07
2023-04-16T06:34:38.474Z,54.53
2023-04-16T06:35:38.446Z,54.73
2023-04-16T06:36:38.458Z,54.21
2023-04-16T06:37:38.465Z,54.21
2023-04-16T06:38:38.474Z,54.54
2023-04-16T06:39:38.422Z,54.55
2023-04-16T06:40:38.424Z,54.81
2023-04-16T06:41:38.424Z,53.52
2023-04-16T06:42:38.389Z,53.66
2023-04-16T06:43:38.376Z,53.78
2023-04-16T06:44:38.415Z,54.00
2023-04-16T06:45:38.405Z,54.11
2023-04-16T06:46:38.417Z,54.64
2023-04-16T06:47:38.460Z,55.56
2023-04-16T06:48:38.345Z,55.46
2023-04-16T06:49:38.359Z,55.21
2023-04-16T06:50:38.365Z,55.09
2023-04-16T06:51:38.353Z,54.79
2023-04-16T06:52:38.316Z,54.63
2023-04-16T06:53:38.325Z,54.78
2023-04-16T06:54:38.302Z,54.69
2023-04-16T06:55:38.376Z,54.70
2023-04-16T06:56:38.389Z,54.90
2023-04-16T06:57:38.298Z,54.85
2023-04-16T06:58:38.304Z,54.60
2023-04-16T06:59:38.323Z,54.88
2023-04-16T07:00:38.350Z,55.19
2023-04-16T07:01:38.261Z,54.00
2023-04-16T07:02:38.398Z,53.82
2023-04-16T07:03:38.413Z,53.75
2023-04-16T07:04:38.236Z,53.91
2023-04-16T07:05:38.250Z,54.23
2023-04-16T07:06:38.255Z,54.14
2023-04-16T07:07:38.241Z,54.14
2023-04-16T07:08:38.233Z,54.11
2023-04-16T07:09:38.245Z,54.28
2023-04-16T07:10:38.166Z,54.44
2023-04-16T07:11:38.186Z,54.62
2023-04-16T07:12:38.179Z,54.14
2023-04-16T07:13:38.194Z,53.77
2023-04-16T07:14:38.219Z,53.66
2023-04-16T07:15:38.176Z,53.82
2023-04-16T07:16:38.252Z,53.66
2023-04-16T07:17:38.166Z,53.70
2023-04-16T07:18:38.173Z,54.32
2023-04-16T07:19:38.190Z,55.04
2023-04-16T07:20:38.145Z,53.27
2023-04-16T07:21:38.156Z,53.69
2023-04-16T07:22:38.159Z,54.05
2023-04-16T07:23:38.123Z,53.85
2023-04-16T07:24:38.139Z,53.96
2023-04-16T07:25:38.081Z,53.82
2023-04-16T07:26:38.144Z,53.96
2023-04-16T07:27:38.203Z,53.76
2023-04-16T07:28:38.299Z,53.23
2023-04-16T07:29:38.352Z,53.21
2023-04-16T07:30:38.435Z,53.37
2023-04-16T07:31:38.533Z,53.28
2023-04-16T07:32:38.571Z,52.95
2023-04-16T07:33:38.565Z,52.91
2023-04-16T07:34:38.637Z,52.86
2023-04-16T07:35:38.650Z,52.42
2023-04-16T07:36:38.669Z,52.26
2023-04-16T07:37:38.743Z,52.31
2023-04-16T07:38:38.750Z,51.62
2023-04-16T07:39:38.836Z,51.63
2023-04-16T07:40:38.865Z,51.19
2023-04-16T07:41:38.858Z,50.56
2023-04-16T07:42:38.929Z,50.22
2023-04-16T07:43:38.979Z,50.26
2023-04-16T07:44:39.014Z,50.42
2023-04-16T07:45:40.060Z,50.49
2023-04-16T07:46:46.232Z,50.70
2023-04-16T07:47:40.180Z,50.41
2023-04-16T07:48:39.096Z,50.90
2023-04-16T07:49:39.129Z,51.01
2023-04-16T07:50:39.108Z,51.08
2023-04-16T07:51:39.089Z,50.51
2023-04-16T07:52:39.057Z,50.57
2023-04-16T07:53:39.087Z,50.80
2023-04-16T07:54:39.111Z,50.69
2023-04-16T07:55:39.057Z,50.20
2023-04-16T07:56:39.067Z,50.42
2023-04-16T07:57:39.034Z,50.93
2023-04-16T07:58:39.069Z,50.96
2023-04-16T07:59:39.177Z,50.85
2023-04-16T08:00:39.192Z,50.45
2023-04-16T08:01:39.256Z,50.41
2023-04-16T08:02:39.389Z,50.55
2023-04-16T08:03:39.480Z,50.35
2023-04-16T08:04:39.398Z,50.77
2023-04-16T08:05:39.389Z,50.28
2023-04-16T08:06:39.390Z,49.37
2023-04-16T08:07:39.410Z,49.67
2023-04-16T08:08:39.457Z,49.92
2023-04-16T08:09:39.470Z,50.30
2023-04-16T08:10:39.440Z,49.57
2023-04-16T08:11:39.477Z,49.82
2023-04-16T08:12:39.511Z,50.14
2023-04-16T08:13:39.482Z,49.98
2023-04-16T08:14:39.493Z,50.26
2023-04-16T08:15:39.580Z,50.77
2023-04-16T08:16:39.516Z,50.09
2023-04-16T08:17:39.609Z,50.31
2023-04-16T08:18:39.527Z,49.81
2023-04-16T08:19:39.527Z,49.85
2023-04-16T08:20:39.567Z,48.71
2023-04-16T08:21:39.570Z,48.04
2023-04-16T08:22:39.600Z,48.24
2023-04-16T08:23:39.584Z,48.63
2023-04-16T08:24:39.598Z,49.82
2023-04-16T08:25:39.687Z,49.26
2023-04-16T08:26:39.641Z,49.39
2023-04-16T08:27:39.882Z,48.41
2023-04-16T08:28:39.793Z,48.00
2023-04-16T08:29:39.848Z,48.45
2023-04-16T08:30:39.892Z,48.52
2023-04-16T08:31:40.014Z,48.31
2023-04-16T08:32:40.047Z,48.20
2023-04-16T08:33:40.016Z,48.59
2023-04-16T08:34:40.078Z,48.42
2023-04-16T08:35:40.150Z,49.11
2023-04-16T08:36:40.152Z,47.96
2023-04-16T08:37:40.189Z,47.90
2023-04-16T08:38:40.230Z,48.27
2023-04-16T08:39:40.212Z,47.87
2023-04-16T08:40:40.263Z,48.02
2023-04-16T08:41:40.228Z,47.76
2023-04-16T08:42:40.258Z,47.61
2023-04-16T08:43:40.291Z,47.43
2023-04-16T08:44:40.288Z,46.99
2023-04-16T08:45:40.312Z,47.11
2023-04-16T08:46:40.445Z,46.97
2023-04-16T08:47:40.315Z,47.09
2023-04-16T08:48:40.342Z,47.14
2023-04-16T08:49:40.292Z,47.01
2023-04-16T08:50:40.321Z,47.42
2023-04-16T08:51:40.320Z,46.72
2023-04-16T08:52:40.321Z,46.59
2023-04-16T08:53:40.309Z,47.19
2023-04-16T08:54:40.340Z,47.00
2023-04-16T08:55:40.422Z,46.75
2023-04-16T08:56:42.886Z,46.67
2023-04-16T08:57:40.354Z,46.77
2023-04-16T08:58:40.338Z,46.61
2023-04-16T08:59:40.366Z,47.10
2023-04-16T09:00:40.357Z,47.21
2023-04-16T09:01:40.348Z,47.12
2023-04-16T09:02:40.681Z,47.74
2023-04-16T09:03:40.360Z,47.72
2023-04-16T09:04:40.377Z,46.39
2023-04-16T09:05:40.293Z,46.60
2023-04-16T09:06:40.297Z,47.03
2023-04-16T09:07:40.287Z,47.65
2023-04-16T09:08:40.278Z,47.22
2023-04-16T09:09:40.218Z,47.55
2023-04-16T09:10:40.295Z,47.44
2023-04-16T09:11:40.324Z,47.19
2023-04-16T09:12:40.253Z,47.23
2023-04-16T09:13:40.242Z,47.50
2023-04-16T09:14:40.248Z,47.99
2023-04-16T09:15:40.246Z,47.56
2023-04-16T09:16:40.379Z,47.58
2023-04-16T09:17:40.275Z,47.45
2023-04-16T09:18:40.191Z,46.51
2023-04-16T09:19:40.182Z,47.04
2023-04-16T09:20:40.995Z,47.19
2023-04-16T09:21:40.199Z,48.06
2023-04-16T09:22:40.230Z,47.19
2023-04-16T09:23:40.155Z,47.21
2023-04-16T09:24:40.154Z,47.19
2023-04-16T09:25:40.208Z,46.94
2023-04-16T09:26:40.163Z,46.08
2023-04-16T09:27:40.140Z,46.39
2023-04-16T09:28:40.189Z,45.58
2023-04-16T09:29:40.178Z,45.79
2023-04-16T09:30:40.175Z,45.99
2023-04-16T09:31:40.161Z,45.07
2023-04-16T09:32:40.179Z,44.59
2023-04-16T09:33:40.096Z,44.62
2023-04-16T09:34:40.094Z,44.99
2023-04-16T09:35:40.105Z,44.86
2023-04-16T09:36:40.083Z,44.60
2023-04-16T09:37:40.106Z,45.18
2023-04-16T09:38:40.080Z,45.74
2023-04-16T09:39:40.078Z,45.87
2023-04-16T09:40:40.102Z,45.84
2023-04-16T09:41:40.037Z,46.84
2023-04-16T09:42:40.059Z,46.53
2023-04-16T09:43:40.074Z,46.94
2023-04-16T09:44:40.079Z,46.15
2023-04-16T09:45:40.130Z,45.61
2023-04-16T09:46:40.018Z,45.26
2023-04-16T09:47:40.110Z,44.96
2023-04-16T09:48:40.024Z,44.58
2023-04-16T09:49:39.991Z,44.45
2023-04-16T09:50:39.994Z,44.69
2023-04-16T09:51:40.025Z,45.14
2023-04-16T09:52:39.983Z,45.59
2023-04-16T09:53:39.969Z,45.07
2023-04-16T09:54:40.058Z,44.48
2023-04-16T09:55:40.022Z,44.21
2023-04-16T09:56:39.972Z,44.44
2023-04-16T09:57:39.941Z,44.95
2023-04-16T09:58:39.929Z,44.36
2023-04-16T09:59:39.951Z,43.56
2023-04-16T10:00:43.661Z,44.01
2023-04-16T10:01:40.033Z,44.48
2023-04-16T10:02:39.981Z,44.97
2023-04-16T10:03:40.220Z,45.10
2023-04-16T10:04:39.900Z,44.26
2023-04-16T10:05:39.935Z,44.20
2023-04-16T10:06:39.881Z,44.80
2023-04-16T10:07:39.901Z,45.37
2023-04-16T10:08:39.880Z,44.53
2023-04-16T10:09:39.871Z,44.39
2023-04-16T10:10:39.880Z,44.24
2023-04-16T10:11:39.864Z,43.64
2023-04-16T10:12:39.838Z,43.72
2023-04-16T10:13:39.873Z,43.72
2023-04-16T10:14:39.867Z,44.60
2023-04-16T10:15:39.858Z,44.58
2023-04-16T10:16:39.950Z,44.56
2023-04-16T10:17:39.897Z,44.32
2023-04-16T10:18:39.802Z,44.19
2023-04-16T10:19:39.778Z,44.25
2023-04-16T10:20:39.781Z,44.99
2023-04-16T10:21:39.797Z,45.26
2023-04-16T10:22:39.805Z,45.25
2023-04-16T10:23:39.790Z,45.58
2023-04-16T10:24:39.772Z,45.33
2023-04-16T10:25:39.814Z,45.81
2023-04-16T10:26:39.778Z,45.12
2023-04-16T10:27:39.728Z,45.30
2023-04-16T10:28:39.816Z,46.28
2023-04-16T10:29:39.709Z,45.91
2023-04-16T10:30:39.842Z,45.36
2023-04-16T10:31:39.729Z,45.70
2023-04-16T10:32:39.754Z,45.65
2023-04-16T10:33:39.722Z,46.17
2023-04-16T10:34:39.681Z,45.39
2023-04-16T10:35:39.695Z,44.45
2023-04-16T10:36:39.688Z,44.74
2023-04-16T10:37:39.640Z,44.74
2023-04-16T10:38:39.668Z,45.11
2023-04-16T10:39:39.684Z,45.30
2023-04-16T10:40:39.682Z,44.95
2023-04-16T10:41:39.632Z,45.56
2023-04-16T10:42:39.681Z,46.14
2023-04-16T10:43:39.746Z,45.28
2023-04-16T10:44:41.888Z,44.81
2023-04-16T10:45:39.792Z,44.95
2023-04-16T10:46:39.907Z,44.87
2023-04-16T10:47:39.808Z,44.93
2023-04-16T10:48:49.629Z,45.89
2023-04-16T10:49:40.766Z,44.95
2023-04-16T10:50:39.756Z,45.99
2023-04-16T10:51:39.767Z,45.84
2023-04-16T10:52:39.772Z,46.11
2023-04-16T10:53:39.759Z,44.53
2023-04-16T10:54:39.772Z,46.35
2023-04-16T10:55:39.735Z,45.56
2023-04-16T10:56:39.694Z,45.07
2023-04-16T10:57:39.724Z,44.08
2023-04-16T10:58:39.724Z,44.96
2023-04-16T10:59:39.713Z,44.82
2023-04-16T11:00:39.752Z,45.40
2023-04-16T11:01:39.971Z,45.29
2023-04-16T11:02:39.887Z,44.57
2023-04-16T11:03:40.041Z,44.02
2023-04-16T11:04:39.974Z,43.75
2023-04-16T11:05:39.942Z,44.45
2023-04-16T11:06:39.898Z,43.99
2023-04-16T11:07:39.999Z,44.18
2023-04-16T11:08:53.247Z,43.26
2023-04-16T11:09:40.950Z,42.69
2023-04-16T11:10:39.944Z,41.68
2023-04-16T11:11:40.028Z,42.60
2023-04-16T11:12:39.990Z,42.60
2023-04-16T11:13:40.657Z,41.29
2023-04-16T11:14:39.939Z,41.10
2023-04-16T11:15:39.998Z,41.50
2023-04-16T11:16:39.883Z,41.55
2023-04-16T11:17:40.022Z,42.18
2023-04-16T11:18:41.637Z,41.44
2023-04-16T11:19:40.900Z,41.42
2023-04-16T11:20:39.894Z,41.01
2023-04-16T11:21:39.929Z,41.14
2023-04-16T11:22:39.827Z,42.26
2023-04-16T11:23:39.865Z,41.30
2023-04-16T11:24:39.866Z,41.14
2023-04-16T11:25:39.835Z,41.57
2023-04-16T11:26:39.822Z,41.96
2023-04-16T11:27:39.904Z,42.48
2023-04-16T11:28:39.907Z,43.06
2023-04-16T11:29:39.936Z,42.43
2023-04-16T11:30:39.967Z,42.64
2023-04-16T11:31:40.069Z,42.44
2023-04-16T11:32:40.087Z,42.32
2023-04-16T11:33:40.119Z,43.25
2023-04-16T11:34:40.216Z,43.11
2023-04-16T11:35:40.296Z,43.71
2023-04-16T11:36:40.287Z,42.08
2023-04-16T11:37:40.348Z,41.69
2023-04-16T11:38:40.372Z,42.77
2023-04-16T11:39:40.358Z,42.52
2023-04-16T11:40:40.456Z,42.62
2023-04-16T11:41:40.525Z,42.88
2023-04-16T11:42:40.589Z,42.39
2023-04-16T11:43:40.532Z,41.66
2023-04-16T11:44:40.554Z,41.86
2023-04-16T11:45:40.602Z,41.76
2023-04-16T11:46:40.769Z,41.53
2023-04-16T11:47:40.613Z,42.17
2023-04-16T11:48:40.715Z,42.20
2023-04-16T11:49:40.634Z,41.80
2023-04-16T11:50:40.661Z,42.32
2023-04-16T11:51:40.651Z,42.55
2023-04-16T11:52:40.696Z,42.96
2023-04-16T11:53:40.739Z,42.80
2023-04-16T11:54:40.727Z,42.83
2023-04-16T11:55:40.820Z,42.48
2023-04-16T11:56:40.802Z,42.52
2023-04-16T11:57:40.917Z,42.81
2023-04-16T11:58:43.272Z,41.70
2023-04-16T12:00:02.166Z,41.86
2023-04-16T12:00:42.160Z,41.78
2023-04-16T12:01:41.248Z,41.85
2023-04-16T12:02:41.312Z,42.39
2023-04-16T12:03:41.300Z,42.96
2023-04-16T12:04:41.185Z,42.33
2023-04-16T12:05:41.113Z,43.33
2023-04-16T12:06:41.101Z,43.64
2023-04-16T12:07:41.065Z,42.54
2023-04-16T12:08:41.166Z,41.78
2023-04-16T12:09:41.315Z,42.42
2023-04-16T12:10:41.253Z,42.19
2023-04-16T12:11:41.303Z,42.40
2023-04-16T12:12:41.381Z,42.71
2023-04-16T12:13:41.440Z,42.46
2023-04-16T12:14:41.378Z,42.37
2023-04-16T12:15:41.404Z,42.91
2023-04-16T12:16:41.425Z,42.87
2023-04-16T12:17:41.448Z,42.36
2023-04-16T12:18:41.486Z,43.04
2023-04-16T12:19:41.450Z,42.38
2023-04-16T12:20:41.525Z,41.50
2023-04-16T12:21:41.553Z,42.10
2023-04-16T12:22:41.604Z,41.75
2023-04-16T12:23:41.635Z,41.40
2023-04-16T12:24:41.637Z,41.93
2023-04-16T12:25:41.724Z,41.97
2023-04-16T12:26:41.756Z,42.75
2023-04-16T12:27:41.882Z,42.83
2023-04-16T12:28:41.950Z,42.09
2023-04-16T12:29:41.956Z,42.45
2023-04-16T12:30:42.054Z,43.33
2023-04-16T12:31:42.021Z,43.41
2023-04-16T12:32:42.111Z,42.86
2023-04-16T12:33:42.059Z,42.91
2023-04-16T12:34:49.090Z,42.68
2023-04-16T12:35:43.075Z,42.49
2023-04-16T12:36:42.049Z,42.18
2023-04-16T12:37:42.135Z,42.12
2023-04-16T12:38:42.040Z,42.56
2023-04-16T12:39:42.108Z,43.46
2023-04-16T12:40:42.110Z,43.00
2023-04-16T12:41:42.044Z,43.41
2023-04-16T12:42:42.059Z,44.24
2023-04-16T12:43:41.987Z,43.48
2023-04-16T12:44:42.041Z,43.67
2023-04-16T12:45:42.024Z,44.06
2023-04-16T12:46:42.035Z,44.45
2023-04-16T12:47:42.090Z,43.48
2023-04-16T12:48:42.033Z,43.58
2023-04-16T12:49:42.000Z,44.10
2023-04-16T12:50:41.948Z,44.21
2023-04-16T12:51:41.948Z,42.94
2023-04-16T12:52:41.940Z,43.08